sensor_id;sensor_type;location;lat;lon;timestamp;P1;durP1;ratioP1;P2;durP2;ratioP2
31004;SDS011;17676;52.254;4.490;2023-03-14T00:00:56;17.38;;;1.85;;
31004;SDS011;17676;52.254;4.490;2023-03-14T00:03:21;18.95;;;1.25;;
31004;SDS011;17676;52.254;4.490;2023-03-14T00:05:47;13.15;;;0.85;;
31004;SDS011;17676;52.254;4.490;2023-03-14T00:08:12;15.63;;;1.52;;
31004;SDS011;17676;52.254;4.490;2023-03-14T00:10:39;12.25;;;1.00;;
31004;SDS011;17676;52.254;4.490;2023-03-14T00:13:04;12.75;;;0.85;;
31004;SDS011;17676;52.254;4.490;2023-03-14T00:15:32;17.33;;;1.23;;
31004;SDS011;17676;52.254;4.490;2023-03-14T00:17:58;12.70;;;0.80;;
31004;SDS011;17676;52.254;4.490;2023-03-14T00:20:24;17.67;;;1.70;;
31004;SDS011;17676;52.254;4.490;2023-03-14T00:22:49;7.85;;;1.13;;
31004;SDS011;17676;52.254;4.490;2023-03-14T00:25:15;13.40;;;1.20;;
31004;SDS011;17676;52.254;4.490;2023-03-14T00:27:41;16.00;;;0.65;;
31004;SDS011;17676;52.254;4.490;2023-03-14T00:30:09;16.33;;;1.25;;
31004;SDS011;17676;52.254;4.490;2023-03-14T00:32:36;18.77;;;1.10;;
31004;SDS011;17676;52.254;4.490;2023-03-14T00:35:02;15.75;;;1.55;;
31004;SDS011;17676;52.254;4.490;2023-03-14T00:37:28;17.08;;;2.03;;
31004;SDS011;17676;52.254;4.490;2023-03-14T00:39:54;18.73;;;1.40;;
31004;SDS011;17676;52.254;4.490;2023-03-14T00:42:19;16.25;;;1.95;;
31004;SDS011;17676;52.254;4.490;2023-03-14T00:44:45;20.23;;;1.92;;
31004;SDS011;17676;52.254;4.490;2023-03-14T00:47:11;17.73;;;2.55;;
31004;SDS011;17676;52.254;4.490;2023-03-14T00:49:36;14.80;;;1.35;;
31004;SDS011;17676;52.254;4.490;2023-03-14T00:52:02;23.13;;;2.58;;
31004;SDS011;17676;52.254;4.490;2023-03-14T00:54:28;23.52;;;1.52;;
31004;SDS011;17676;52.254;4.490;2023-03-14T00:56:54;25.70;;;2.38;;
31004;SDS011;17676;52.254;4.490;2023-03-14T00:59:20;18.15;;;2.00;;
31004;SDS011;17676;52.254;4.490;2023-03-14T01:01:45;27.30;;;2.47;;
31004;SDS011;17676;52.254;4.490;2023-03-14T01:04:11;16.00;;;1.73;;
31004;SDS011;17676;52.254;4.490;2023-03-14T01:06:36;27.25;;;2.40;;
31004;SDS011;17676;52.254;4.490;2023-03-14T01:09:02;22.65;;;2.25;;
31004;SDS011;17676;52.254;4.490;2023-03-14T01:11:29;24.05;;;2.53;;
31004;SDS011;17676;52.254;4.490;2023-03-14T01:13:56;26.58;;;2.55;;
31004;SDS011;17676;52.254;4.490;2023-03-14T01:16:22;25.45;;;2.83;;
31004;SDS011;17676;52.254;4.490;2023-03-14T01:18:50;27.20;;;3.00;;
31004;SDS011;17676;52.254;4.490;2023-03-14T01:21:16;25.20;;;2.90;;
31004;SDS011;17676;52.254;4.490;2023-03-14T01:23:44;26.80;;;3.08;;
31004;SDS011;17676;52.254;4.490;2023-03-14T01:26:11;20.42;;;2.33;;
31004;SDS011;17676;52.254;4.490;2023-03-14T01:28:38;24.70;;;2.83;;
31004;SDS011;17676;52.254;4.490;2023-03-14T01:31:07;28.63;;;2.40;;
31004;SDS011;17676;52.254;4.490;2023-03-14T01:33:34;26.67;;;2.83;;
31004;SDS011;17676;52.254;4.490;2023-03-14T01:36:00;33.70;;;2.88;;
31004;SDS011;17676;52.254;4.490;2023-03-14T01:38:29;22.58;;;2.50;;
31004;SDS011;17676;52.254;4.490;2023-03-14T01:40:56;25.48;;;2.75;;
31004;SDS011;17676;52.254;4.490;2023-03-14T01:43:22;13.70;;;1.27;;
31004;SDS011;17676;52.254;4.490;2023-03-14T01:48:45;19.38;;;2.00;;
31004;SDS011;17676;52.254;4.490;2023-03-14T01:51:18;19.27;;;1.70;;
31004;SDS011;17676;52.254;4.490;2023-03-14T01:53:50;31.80;;;3.20;;
31004;SDS011;17676;52.254;4.490;2023-03-14T01:56:17;24.60;;;2.58;;
31004;SDS011;17676;52.254;4.490;2023-03-14T01:58:45;16.08;;;1.15;;
31004;SDS011;17676;52.254;4.490;2023-03-14T02:01:16;22.05;;;2.65;;
31004;SDS011;17676;52.254;4.490;2023-03-14T02:03:47;18.05;;;2.63;;
31004;SDS011;17676;52.254;4.490;2023-03-14T02:06:17;27.10;;;2.92;;
31004;SDS011;17676;52.254;4.490;2023-03-14T02:08:46;17.85;;;1.83;;
31004;SDS011;17676;52.254;4.490;2023-03-14T02:11:14;22.17;;;2.50;;
31004;SDS011;17676;52.254;4.490;2023-03-14T02:13:41;26.00;;;3.45;;
31004;SDS011;17676;52.254;4.490;2023-03-14T02:16:08;21.88;;;2.65;;
31004;SDS011;17676;52.254;4.490;2023-03-14T02:18:34;18.58;;;1.38;;
31004;SDS011;17676;52.254;4.490;2023-03-14T02:26:31;31.48;;;2.60;;
31004;SDS011;17676;52.254;4.490;2023-03-14T02:28:58;19.20;;;2.17;;
31004;SDS011;17676;52.254;4.490;2023-03-14T02:31:24;20.98;;;1.75;;
31004;SDS011;17676;52.254;4.490;2023-03-14T02:33:50;17.67;;;2.00;;
31004;SDS011;17676;52.254;4.490;2023-03-14T02:36:16;13.52;;;1.25;;
31004;SDS011;17676;52.254;4.490;2023-03-14T02:38:50;18.50;;;1.80;;
31004;SDS011;17676;52.254;4.490;2023-03-14T02:41:23;21.85;;;1.65;;
31004;SDS011;17676;52.254;4.490;2023-03-14T02:43:48;11.70;;;1.00;;
31004;SDS011;17676;52.254;4.490;2023-03-14T02:46:15;17.15;;;2.47;;
31004;SDS011;17676;52.254;4.490;2023-03-14T02:48:45;14.27;;;1.55;;
31004;SDS011;17676;52.254;4.490;2023-03-14T02:51:17;17.73;;;1.75;;
31004;SDS011;17676;52.254;4.490;2023-03-14T02:53:43;20.02;;;1.45;;
31004;SDS011;17676;52.254;4.490;2023-03-14T02:56:09;17.40;;;1.23;;
31004;SDS011;17676;52.254;4.490;2023-03-14T02:58:36;14.27;;;1.40;;
31004;SDS011;17676;52.254;4.490;2023-03-14T03:01:01;14.43;;;1.52;;
31004;SDS011;17676;52.254;4.490;2023-03-14T03:03:27;15.57;;;1.05;;
31004;SDS011;17676;52.254;4.490;2023-03-14T03:05:53;11.10;;;0.80;;
31004;SDS011;17676;52.254;4.490;2023-03-14T03:08:20;11.98;;;1.00;;
31004;SDS011;17676;52.254;4.490;2023-03-14T03:10:47;6.93;;;0.63;;
31004;SDS011;17676;52.254;4.490;2023-03-14T03:13:13;8.50;;;1.67;;
31004;SDS011;17676;52.254;4.490;2023-03-14T03:15:39;5.25;;;0.98;;
31004;SDS011;17676;52.254;4.490;2023-03-14T03:18:05;6.15;;;1.45;;
31004;SDS011;17676;52.254;4.490;2023-03-14T03:20:30;13.43;;;1.33;;
31004;SDS011;17676;52.254;4.490;2023-03-14T03:22:56;14.98;;;2.00;;
31004;SDS011;17676;52.254;4.490;2023-03-14T03:25:23;13.40;;;1.60;;
31004;SDS011;17676;52.254;4.490;2023-03-14T03:27:48;12.90;;;1.65;;
31004;SDS011;17676;52.254;4.490;2023-03-14T03:30:13;7.00;;;0.73;;
31004;SDS011;17676;52.254;4.490;2023-03-14T03:32:39;12.13;;;1.58;;
31004;SDS011;17676;52.254;4.490;2023-03-14T03:35:05;11.25;;;1.40;;
31004;SDS011;17676;52.254;4.490;2023-03-14T03:37:31;18.30;;;2.63;;
31004;SDS011;17676;52.254;4.490;2023-03-14T03:39:57;7.10;;;1.20;;
31004;SDS011;17676;52.254;4.490;2023-03-14T03:42:23;20.35;;;2.35;;
31004;SDS011;17676;52.254;4.490;2023-03-14T03:44:48;13.40;;;1.88;;
31004;SDS011;17676;52.254;4.490;2023-03-14T03:47:15;15.77;;;2.50;;
31004;SDS011;17676;52.254;4.490;2023-03-14T03:49:40;12.25;;;2.33;;
31004;SDS011;17676;52.254;4.490;2023-03-14T03:52:06;15.38;;;2.35;;
31004;SDS011;17676;52.254;4.490;2023-03-14T03:54:31;17.67;;;2.97;;
31004;SDS011;17676;52.254;4.490;2023-03-14T03:56:56;15.00;;;3.00;;
31004;SDS011;17676;52.254;4.490;2023-03-14T03:59:22;17.63;;;3.05;;
31004;SDS011;17676;52.254;4.490;2023-03-14T04:01:47;12.18;;;3.83;;
31004;SDS011;17676;52.254;4.490;2023-03-14T04:04:13;19.05;;;3.45;;
31004;SDS011;17676;52.254;4.490;2023-03-14T04:06:39;23.50;;;3.88;;
31004;SDS011;17676;52.254;4.490;2023-03-14T04:09:06;20.40;;;4.07;;
31004;SDS011;17676;52.254;4.490;2023-03-14T04:11:33;19.92;;;3.60;;
31004;SDS011;17676;52.254;4.490;2023-03-14T04:13:58;18.73;;;4.25;;
31004;SDS011;17676;52.254;4.490;2023-03-14T04:16:26;9.07;;;2.60;;
31004;SDS011;17676;52.254;4.490;2023-03-14T04:18:52;24.23;;;4.57;;
31004;SDS011;17676;52.254;4.490;2023-03-14T04:21:17;18.38;;;4.32;;
31004;SDS011;17676;52.254;4.490;2023-03-14T04:23:44;18.55;;;4.18;;
31004;SDS011;17676;52.254;4.490;2023-03-14T04:26:10;15.65;;;3.13;;
31004;SDS011;17676;52.254;4.490;2023-03-14T04:28:36;17.17;;;3.35;;
31004;SDS011;17676;52.254;4.490;2023-03-14T04:31:18;15.43;;;2.67;;
31004;SDS011;17676;52.254;4.490;2023-03-14T04:33:46;13.23;;;2.83;;
31004;SDS011;17676;52.254;4.490;2023-03-14T04:36:12;15.73;;;2.22;;
31004;SDS011;17676;52.254;4.490;2023-03-14T04:38:38;21.80;;;3.78;;
31004;SDS011;17676;52.254;4.490;2023-03-14T04:41:04;16.80;;;2.85;;
31004;SDS011;17676;52.254;4.490;2023-03-14T04:43:30;20.55;;;2.33;;
31004;SDS011;17676;52.254;4.490;2023-03-14T04:45:56;16.80;;;3.13;;
31004;SDS011;17676;52.254;4.490;2023-03-14T04:48:23;16.63;;;3.15;;
31004;SDS011;17676;52.254;4.490;2023-03-14T04:50:50;27.38;;;2.70;;
31004;SDS011;17676;52.254;4.490;2023-03-14T04:53:16;11.93;;;2.60;;
31004;SDS011;17676;52.254;4.490;2023-03-14T04:55:47;19.50;;;3.58;;
31004;SDS011;17676;52.254;4.490;2023-03-14T04:58:16;23.98;;;3.85;;
31004;SDS011;17676;52.254;4.490;2023-03-14T05:00:45;19.80;;;3.90;;
31004;SDS011;17676;52.254;4.490;2023-03-14T05:03:11;14.30;;;2.13;;
31004;SDS011;17676;52.254;4.490;2023-03-14T05:05:37;18.83;;;3.88;;
31004;SDS011;17676;52.254;4.490;2023-03-14T05:08:02;18.42;;;3.50;;
31004;SDS011;17676;52.254;4.490;2023-03-14T05:10:28;15.07;;;2.85;;
31004;SDS011;17676;52.254;4.490;2023-03-14T05:12:54;20.80;;;3.13;;
31004;SDS011;17676;52.254;4.490;2023-03-14T05:15:19;17.20;;;3.85;;
31004;SDS011;17676;52.254;4.490;2023-03-14T05:17:44;27.60;;;2.92;;
31004;SDS011;17676;52.254;4.490;2023-03-14T05:20:11;13.52;;;1.42;;
31004;SDS011;17676;52.254;4.490;2023-03-14T05:22:38;19.73;;;1.00;;
31004;SDS011;17676;52.254;4.490;2023-03-14T05:25:04;18.33;;;0.98;;
31004;SDS011;17676;52.254;4.490;2023-03-14T05:27:29;12.40;;;0.40;;
31004;SDS011;17676;52.254;4.490;2023-03-14T05:29:55;10.35;;;0.47;;
31004;SDS011;17676;52.254;4.490;2023-03-14T05:32:21;11.23;;;0.50;;
31004;SDS011;17676;52.254;4.490;2023-03-14T05:34:46;17.15;;;0.88;;
31004;SDS011;17676;52.254;4.490;2023-03-14T05:37:14;10.52;;;1.30;;
31004;SDS011;17676;52.254;4.490;2023-03-14T05:39:40;23.35;;;1.05;;
31004;SDS011;17676;52.254;4.490;2023-03-14T05:42:05;15.98;;;0.60;;
31004;SDS011;17676;52.254;4.490;2023-03-14T05:44:31;13.02;;;0.80;;
31004;SDS011;17676;52.254;4.490;2023-03-14T05:46:56;19.02;;;0.50;;
31004;SDS011;17676;52.254;4.490;2023-03-14T05:49:22;10.57;;;0.40;;
31004;SDS011;17676;52.254;4.490;2023-03-14T05:51:48;15.10;;;0.43;;
31004;SDS011;17676;52.254;4.490;2023-03-14T05:54:13;12.75;;;0.30;;
31004;SDS011;17676;52.254;4.490;2023-03-14T05:56:38;11.13;;;0.85;;
31004;SDS011;17676;52.254;4.490;2023-03-14T05:59:04;9.25;;;0.40;;
31004;SDS011;17676;52.254;4.490;2023-03-14T06:01:32;11.65;;;0.43;;
31004;SDS011;17676;52.254;4.490;2023-03-14T06:03:58;15.15;;;0.47;;
31004;SDS011;17676;52.254;4.490;2023-03-14T06:06:23;10.20;;;0.75;;
31004;SDS011;17676;52.254;4.490;2023-03-14T06:08:50;11.98;;;0.55;;
31004;SDS011;17676;52.254;4.490;2023-03-14T06:11:15;12.30;;;1.13;;
31004;SDS011;17676;52.254;4.490;2023-03-14T06:13:41;18.13;;;1.08;;
31004;SDS011;17676;52.254;4.490;2023-03-14T06:16:06;12.52;;;0.70;;
31004;SDS011;17676;52.254;4.490;2023-03-14T06:18:32;19.60;;;1.00;;
31004;SDS011;17676;52.254;4.490;2023-03-14T06:20:59;14.77;;;0.60;;
31004;SDS011;17676;52.254;4.490;2023-03-14T06:23:24;13.85;;;0.73;;
31004;SDS011;17676;52.254;4.490;2023-03-14T06:25:50;17.52;;;0.68;;
31004;SDS011;17676;52.254;4.490;2023-03-14T06:28:17;12.32;;;1.00;;
31004;SDS011;17676;52.254;4.490;2023-03-14T06:30:43;11.25;;;0.55;;
31004;SDS011;17676;52.254;4.490;2023-03-14T06:33:09;14.05;;;0.90;;
31004;SDS011;17676;52.254;4.490;2023-03-14T06:35:34;20.55;;;1.48;;
31004;SDS011;17676;52.254;4.490;2023-03-14T06:38:01;12.88;;;1.52;;
31004;SDS011;17676;52.254;4.490;2023-03-14T06:40:26;13.68;;;0.77;;
31004;SDS011;17676;52.254;4.490;2023-03-14T06:42:52;22.05;;;1.40;;
31004;SDS011;17676;52.254;4.490;2023-03-14T06:45:17;16.95;;;0.52;;
31004;SDS011;17676;52.254;4.490;2023-03-14T06:47:44;18.48;;;0.77;;
31004;SDS011;17676;52.254;4.490;2023-03-14T06:50:10;16.73;;;0.70;;
31004;SDS011;17676;52.254;4.490;2023-03-14T06:52:36;10.30;;;0.50;;
31004;SDS011;17676;52.254;4.490;2023-03-14T06:55:02;13.90;;;0.40;;
31004;SDS011;17676;52.254;4.490;2023-03-14T06:57:28;8.52;;;0.80;;
31004;SDS011;17676;52.254;4.490;2023-03-14T06:59:54;12.48;;;0.30;;
31004;SDS011;17676;52.254;4.490;2023-03-14T07:02:20;7.47;;;0.38;;
31004;SDS011;17676;52.254;4.490;2023-03-14T07:04:47;12.20;;;0.30;;
31004;SDS011;17676;52.254;4.490;2023-03-14T07:07:12;7.80;;;0.40;;
31004;SDS011;17676;52.254;4.490;2023-03-14T07:09:38;10.75;;;0.30;;
31004;SDS011;17676;52.254;4.490;2023-03-14T07:12:04;12.45;;;0.60;;
31004;SDS011;17676;52.254;4.490;2023-03-14T07:14:30;14.02;;;0.50;;
31004;SDS011;17676;52.254;4.490;2023-03-14T07:16:56;9.93;;;0.38;;
31004;SDS011;17676;52.254;4.490;2023-03-14T07:19:22;13.10;;;1.17;;
31004;SDS011;17676;52.254;4.490;2023-03-14T07:21:48;7.63;;;0.57;;
31004;SDS011;17676;52.254;4.490;2023-03-14T07:24:14;13.55;;;0.55;;
31004;SDS011;17676;52.254;4.490;2023-03-14T07:26:39;11.02;;;0.22;;
31004;SDS011;17676;52.254;4.490;2023-03-14T07:29:05;15.48;;;0.80;;
31004;SDS011;17676;52.254;4.490;2023-03-14T07:31:31;15.73;;;0.73;;
31004;SDS011;17676;52.254;4.490;2023-03-14T07:33:56;14.90;;;0.75;;
31004;SDS011;17676;52.254;4.490;2023-03-14T07:36:22;16.00;;;0.93;;
31004;SDS011;17676;52.254;4.490;2023-03-14T07:38:48;14.90;;;0.55;;
31004;SDS011;17676;52.254;4.490;2023-03-14T07:41:15;7.55;;;0.43;;
31004;SDS011;17676;52.254;4.490;2023-03-14T07:43:40;8.15;;;0.30;;
31004;SDS011;17676;52.254;4.490;2023-03-14T07:46:06;9.43;;;0.30;;
31004;SDS011;17676;52.254;4.490;2023-03-14T07:48:35;19.80;;;1.00;;
31004;SDS011;17676;52.254;4.490;2023-03-14T07:51:09;11.00;;;0.70;;
31004;SDS011;17676;52.254;4.490;2023-03-14T07:53:35;9.85;;;0.40;;
31004;SDS011;17676;52.254;4.490;2023-03-14T07:56:01;8.48;;;0.60;;
31004;SDS011;17676;52.254;4.490;2023-03-14T07:58:30;20.02;;;0.60;;
31004;SDS011;17676;52.254;4.490;2023-03-14T08:00:59;8.77;;;0.70;;
31004;SDS011;17676;52.254;4.490;2023-03-14T08:03:24;13.40;;;0.98;;
31004;SDS011;17676;52.254;4.490;2023-03-14T08:05:50;9.65;;;0.20;;
31004;SDS011;17676;52.254;4.490;2023-03-14T08:08:19;4.55;;;0.17;;
31004;SDS011;17676;52.254;4.490;2023-03-14T08:10:44;5.38;;;0.52;;
31004;SDS011;17676;52.254;4.490;2023-03-14T08:13:11;7.60;;;0.45;;
31004;SDS011;17676;52.254;4.490;2023-03-14T08:15:37;5.60;;;0.28;;
31004;SDS011;17676;52.254;4.490;2023-03-14T08:18:03;8.75;;;0.25;;
31004;SDS011;17676;52.254;4.490;2023-03-14T08:20:29;9.18;;;0.47;;
31004;SDS011;17676;52.254;4.490;2023-03-14T08:22:56;8.35;;;0.50;;
31004;SDS011;17676;52.254;4.490;2023-03-14T08:25:22;8.85;;;0.30;;
31004;SDS011;17676;52.254;4.490;2023-03-14T08:27:48;8.88;;;0.40;;
31004;SDS011;17676;52.254;4.490;2023-03-14T08:30:15;12.05;;;0.60;;
31004;SDS011;17676;52.254;4.490;2023-03-14T08:32:42;15.77;;;1.27;;
31004;SDS011;17676;52.254;4.490;2023-03-14T08:35:08;13.98;;;0.93;;
31004;SDS011;17676;52.254;4.490;2023-03-14T08:37:37;19.02;;;0.90;;
31004;SDS011;17676;52.254;4.490;2023-03-14T08:40:03;12.20;;;0.88;;
31004;SDS011;17676;52.254;4.490;2023-03-14T08:42:34;21.08;;;1.58;;
31004;SDS011;17676;52.254;4.490;2023-03-14T08:45:00;19.98;;;1.48;;
31004;SDS011;17676;52.254;4.490;2023-03-14T08:47:26;15.35;;;1.02;;
31004;SDS011;17676;52.254;4.490;2023-03-14T08:49:55;17.73;;;1.48;;
31004;SDS011;17676;52.254;4.490;2023-03-14T08:52:21;27.77;;;1.70;;
31004;SDS011;17676;52.254;4.490;2023-03-14T08:54:47;20.23;;;1.85;;
31004;SDS011;17676;52.254;4.490;2023-03-14T08:57:14;17.75;;;1.40;;
31004;SDS011;17676;52.254;4.490;2023-03-14T08:59:39;21.27;;;1.63;;
31004;SDS011;17676;52.254;4.490;2023-03-14T09:02:05;18.67;;;1.48;;
31004;SDS011;17676;52.254;4.490;2023-03-14T09:04:31;16.27;;;1.17;;
31004;SDS011;17676;52.254;4.490;2023-03-14T09:06:57;10.88;;;0.80;;
31004;SDS011;17676;52.254;4.490;2023-03-14T09:09:24;18.65;;;0.85;;
31004;SDS011;17676;52.254;4.490;2023-03-14T09:11:51;17.55;;;1.33;;
31004;SDS011;17676;52.254;4.490;2023-03-14T09:14:18;24.63;;;1.83;;
31004;SDS011;17676;52.254;4.490;2023-03-14T09:16:43;24.15;;;2.17;;
31004;SDS011;17676;52.254;4.490;2023-03-14T09:19:10;17.40;;;1.35;;
31004;SDS011;17676;52.254;4.490;2023-03-14T09:21:35;20.52;;;2.28;;
31004;SDS011;17676;52.254;4.490;2023-03-14T09:24:02;28.80;;;2.05;;
31004;SDS011;17676;52.254;4.490;2023-03-14T09:26:29;31.05;;;2.38;;
31004;SDS011;17676;52.254;4.490;2023-03-14T09:28:54;24.85;;;1.45;;
31004;SDS011;17676;52.254;4.490;2023-03-14T09:31:20;22.13;;;1.85;;
31004;SDS011;17676;52.254;4.490;2023-03-14T09:33:45;24.15;;;1.55;;
31004;SDS011;17676;52.254;4.490;2023-03-14T09:36:11;28.42;;;2.22;;
31004;SDS011;17676;52.254;4.490;2023-03-14T09:38:38;22.40;;;2.20;;
31004;SDS011;17676;52.254;4.490;2023-03-14T09:41:10;25.30;;;1.95;;
31004;SDS011;17676;52.254;4.490;2023-03-14T09:43:42;18.55;;;1.50;;
31004;SDS011;17676;52.254;4.490;2023-03-14T09:46:10;18.27;;;1.60;;
31004;SDS011;17676;52.254;4.490;2023-03-14T09:48:38;23.80;;;1.48;;
31004;SDS011;17676;52.254;4.490;2023-03-14T09:51:05;23.85;;;1.95;;
31004;SDS011;17676;52.254;4.490;2023-03-14T09:53:41;21.13;;;1.48;;
31004;SDS011;17676;52.254;4.490;2023-03-14T09:56:13;24.25;;;2.00;;
31004;SDS011;17676;52.254;4.490;2023-03-14T09:58:54;22.02;;;2.28;;
31004;SDS011;17676;52.254;4.490;2023-03-14T10:01:27;18.27;;;1.52;;
31004;SDS011;17676;52.254;4.490;2023-03-14T10:03:56;20.48;;;1.83;;
31004;SDS011;17676;52.254;4.490;2023-03-14T10:06:24;19.35;;;1.33;;
31004;SDS011;17676;52.254;4.490;2023-03-14T10:08:52;17.65;;;1.23;;
31004;SDS011;17676;52.254;4.490;2023-03-14T10:11:19;21.00;;;1.77;;
31004;SDS011;17676;52.254;4.490;2023-03-14T10:16:34;20.80;;;1.58;;
31004;SDS011;17676;52.254;4.490;2023-03-14T10:19:02;20.38;;;1.75;;
31004;SDS011;17676;52.254;4.490;2023-03-14T10:21:30;25.10;;;1.85;;
31004;SDS011;17676;52.254;4.490;2023-03-14T10:26:47;17.00;;;1.33;;
31004;SDS011;17676;52.254;4.490;2023-03-14T10:29:15;15.93;;;1.38;;
31004;SDS011;17676;52.254;4.490;2023-03-14T10:31:49;17.08;;;1.05;;
31004;SDS011;17676;52.254;4.490;2023-03-14T10:34:17;13.02;;;1.17;;
31004;SDS011;17676;52.254;4.490;2023-03-14T10:37:04;15.90;;;1.63;;
31004;SDS011;17676;52.254;4.490;2023-03-14T10:39:46;17.08;;;1.30;;
31004;SDS011;17676;52.254;4.490;2023-03-14T10:42:25;25.10;;;1.77;;
31004;SDS011;17676;52.254;4.490;2023-03-14T10:44:55;14.05;;;1.33;;
31004;SDS011;17676;52.254;4.490;2023-03-14T10:47:33;14.50;;;1.20;;
31004;SDS011;17676;52.254;4.490;2023-03-14T10:52:48;9.90;;;0.60;;
31004;SDS011;17676;52.254;4.490;2023-03-14T10:55:16;6.05;;;0.80;;
31004;SDS011;17676;52.254;4.490;2023-03-14T10:57:42;12.55;;;0.70;;
31004;SDS011;17676;52.254;4.490;2023-03-14T11:00:18;12.15;;;0.90;;
31004;SDS011;17676;52.254;4.490;2023-03-14T11:02:49;12.05;;;1.33;;
31004;SDS011;17676;52.254;4.490;2023-03-14T11:10:50;9.45;;;1.00;;
31004;SDS011;17676;52.254;4.490;2023-03-14T11:18:30;13.40;;;0.88;;
31004;SDS011;17676;52.254;4.490;2023-03-14T11:26:36;14.50;;;1.20;;
31004;SDS011;17676;52.254;4.490;2023-03-14T11:32:09;9.10;;;1.00;;
31004;SDS011;17676;52.254;4.490;2023-03-14T11:34:51;8.15;;;1.13;;
31004;SDS011;17676;52.254;4.490;2023-03-14T11:37:26;10.85;;;1.15;;
31004;SDS011;17676;52.254;4.490;2023-03-14T11:42:34;7.90;;;0.85;;
31004;SDS011;17676;52.254;4.490;2023-03-14T11:45:00;7.78;;;0.80;;
31004;SDS011;17676;52.254;4.490;2023-03-14T11:47:29;11.73;;;1.55;;
31004;SDS011;17676;52.254;4.490;2023-03-14T11:50:13;10.45;;;0.60;;
31004;SDS011;17676;52.254;4.490;2023-03-14T11:52:45;8.48;;;0.63;;
31004;SDS011;17676;52.254;4.490;2023-03-14T12:01:00;10.80;;;0.50;;
31004;SDS011;17676;52.254;4.490;2023-03-14T12:03:34;17.58;;;0.88;;
31004;SDS011;17676;52.254;4.490;2023-03-14T12:08:43;12.20;;;0.95;;
31004;SDS011;17676;52.254;4.490;2023-03-14T12:16:56;8.82;;;0.65;;
31004;SDS011;17676;52.254;4.490;2023-03-14T12:19:29;7.05;;;0.68;;
31004;SDS011;17676;52.254;4.490;2023-03-14T12:22:05;6.38;;;0.40;;
31004;SDS011;17676;52.254;4.490;2023-03-14T12:24:50;9.63;;;0.40;;
31004;SDS011;17676;52.254;4.490;2023-03-14T12:28:04;4.93;;;0.30;;
31004;SDS011;17676;52.254;4.490;2023-03-14T12:30:23;3.78;;;0.50;;
31004;SDS011;17676;52.254;4.490;2023-03-14T12:38:06;10.75;;;1.20;;
31004;SDS011;17676;52.254;4.490;2023-03-14T12:40:47;4.75;;;0.30;;
31004;SDS011;17676;52.254;4.490;2023-03-14T12:43:28;8.82;;;0.45;;
31004;SDS011;17676;52.254;4.490;2023-03-14T12:46:06;7.10;;;0.47;;
31004;SDS011;17676;52.254;4.490;2023-03-14T12:51:36;13.43;;;0.52;;
31004;SDS011;17676;52.254;4.490;2023-03-14T12:57:11;13.50;;;0.77;;
31004;SDS011;17676;52.254;4.490;2023-03-14T12:59:51;7.68;;;0.38;;
31004;SDS011;17676;52.254;4.490;2023-03-14T13:02:26;8.43;;;0.43;;
31004;SDS011;17676;52.254;4.490;2023-03-14T13:05:04;3.75;;;0.30;;
31004;SDS011;17676;52.254;4.490;2023-03-14T13:07:34;7.47;;;0.30;;
31004;SDS011;17676;52.254;4.490;2023-03-14T13:12:54;8.13;;;0.40;;
31004;SDS011;17676;52.254;4.490;2023-03-14T13:17:59;6.47;;;0.30;;
31004;SDS011;17676;52.254;4.490;2023-03-14T13:20:39;6.57;;;0.40;;
31004;SDS011;17676;52.254;4.490;2023-03-14T13:23:21;8.63;;;0.40;;
31004;SDS011;17676;52.254;4.490;2023-03-14T13:25:48;6.95;;;0.30;;
31004;SDS011;17676;52.254;4.490;2023-03-14T13:28:14;4.70;;;0.50;;
31004;SDS011;17676;52.254;4.490;2023-03-14T13:30:45;4.78;;;0.40;;
31004;SDS011;17676;52.254;4.490;2023-03-14T13:33:21;6.43;;;0.50;;
31004;SDS011;17676;52.254;4.490;2023-03-14T13:35:49;14.07;;;0.43;;
31004;SDS011;17676;52.254;4.490;2023-03-14T13:38:29;8.73;;;0.45;;
31004;SDS011;17676;52.254;4.490;2023-03-14T13:41:06;7.25;;;0.38;;
31004;SDS011;17676;52.254;4.490;2023-03-14T13:43:33;11.40;;;0.40;;
31004;SDS011;17676;52.254;4.490;2023-03-14T13:46:12;9.15;;;0.50;;
31004;SDS011;17676;52.254;4.490;2023-03-14T13:51:24;9.48;;;0.50;;
31004;SDS011;17676;52.254;4.490;2023-03-14T13:53:53;10.02;;;0.50;;
31004;SDS011;17676;52.254;4.490;2023-03-14T13:56:20;8.38;;;0.60;;
31004;SDS011;17676;52.254;4.490;2023-03-14T13:58:47;9.80;;;0.50;;
31004;SDS011;17676;52.254;4.490;2023-03-14T14:03:52;9.57;;;0.40;;
31004;SDS011;17676;52.254;4.490;2023-03-14T14:06:30;12.10;;;0.57;;
31004;SDS011;17676;52.254;4.490;2023-03-14T14:08:59;6.60;;;0.57;;
31004;SDS011;17676;52.254;4.490;2023-03-14T14:11:32;6.57;;;0.50;;
31004;SDS011;17676;52.254;4.490;2023-03-14T14:14:06;8.18;;;0.38;;
31004;SDS011;17676;52.254;4.490;2023-03-14T14:16:37;8.05;;;0.28;;
31004;SDS011;17676;52.254;4.490;2023-03-14T14:19:03;9.88;;;0.35;;
31004;SDS011;17676;52.254;4.490;2023-03-14T14:21:32;4.55;;;0.32;;
31004;SDS011;17676;52.254;4.490;2023-03-14T14:23:58;9.20;;;0.30;;
31004;SDS011;17676;52.254;4.490;2023-03-14T14:26:31;10.15;;;0.85;;
31004;SDS011;17676;52.254;4.490;2023-03-14T14:29:04;10.27;;;0.43;;
31004;SDS011;17676;52.254;4.490;2023-03-14T14:31:31;9.73;;;0.65;;
31004;SDS011;17676;52.254;4.490;2023-03-14T14:33:58;8.90;;;0.60;;
31004;SDS011;17676;52.254;4.490;2023-03-14T14:36:29;10.52;;;0.73;;
31004;SDS011;17676;52.254;4.490;2023-03-14T14:39:09;11.70;;;0.30;;
31004;SDS011;17676;52.254;4.490;2023-03-14T14:41:42;14.65;;;1.08;;
31004;SDS011;17676;52.254;4.490;2023-03-14T14:44:12;9.45;;;0.63;;
31004;SDS011;17676;52.254;4.490;2023-03-14T14:46:39;14.50;;;0.95;;
31004;SDS011;17676;52.254;4.490;2023-03-14T14:49:15;12.93;;;0.40;;
31004;SDS011;17676;52.254;4.490;2023-03-14T14:51:47;6.05;;;0.40;;
31004;SDS011;17676;52.254;4.490;2023-03-14T14:54:15;9.52;;;0.60;;
31004;SDS011;17676;52.254;4.490;2023-03-14T14:56:46;15.25;;;1.27;;
31004;SDS011;17676;52.254;4.490;2023-03-14T14:59:23;13.27;;;0.75;;
31004;SDS011;17676;52.254;4.490;2023-03-14T15:01:59;11.55;;;0.70;;
31004;SDS011;17676;52.254;4.490;2023-03-14T15:04:29;8.88;;;0.60;;
31004;SDS011;17676;52.254;4.490;2023-03-14T15:06:57;5.43;;;0.80;;
31004;SDS011;17676;52.254;4.490;2023-03-14T15:09:23;6.63;;;0.45;;
31004;SDS011;17676;52.254;4.490;2023-03-14T15:11:49;6.28;;;0.40;;
31004;SDS011;17676;52.254;4.490;2023-03-14T15:14:14;2.13;;;0.20;;
31004;SDS011;17676;52.254;4.490;2023-03-14T15:16:43;10.23;;;0.30;;
31004;SDS011;17676;52.254;4.490;2023-03-14T15:19:14;8.50;;;0.60;;
31004;SDS011;17676;52.254;4.490;2023-03-14T15:21:46;8.02;;;0.30;;
31004;SDS011;17676;52.254;4.490;2023-03-14T15:24:11;4.32;;;0.20;;
31004;SDS011;17676;52.254;4.490;2023-03-14T15:26:37;10.32;;;0.50;;
31004;SDS011;17676;52.254;4.490;2023-03-14T15:29:03;7.95;;;0.40;;
31004;SDS011;17676;52.254;4.490;2023-03-14T15:31:33;10.65;;;0.40;;
31004;SDS011;17676;52.254;4.490;2023-03-14T15:33:59;7.35;;;0.40;;
31004;SDS011;17676;52.254;4.490;2023-03-14T15:36:28;4.53;;;0.32;;
31004;SDS011;17676;52.254;4.490;2023-03-14T15:38:59;5.35;;;0.47;;
31004;SDS011;17676;52.254;4.490;2023-03-14T15:41:25;11.13;;;0.52;;
31004;SDS011;17676;52.254;4.490;2023-03-14T15:43:52;9.52;;;0.75;;
31004;SDS011;17676;52.254;4.490;2023-03-14T15:46:19;10.00;;;0.38;;
31004;SDS011;17676;52.254;4.490;2023-03-14T15:48:47;11.48;;;0.65;;
31004;SDS011;17676;52.254;4.490;2023-03-14T15:51:14;6.25;;;0.45;;
31004;SDS011;17676;52.254;4.490;2023-03-14T15:53:40;8.30;;;0.40;;
31004;SDS011;17676;52.254;4.490;2023-03-14T15:56:10;13.98;;;0.95;;
31004;SDS011;17676;52.254;4.490;2023-03-14T15:58:38;8.10;;;0.40;;